sensor_id;sensor_type;location;lat;lon;timestamp;P1;durP1;ratioP1;P2;durP2;ratioP2
20140;SDS011;10231;47.702;9.826;2023-06-01T00:01:27;6.63;;;3.40;;
20140;SDS011;10231;47.702;9.826;2023-06-01T00:03:58;4.40;;;4.00;;
20140;SDS011;10231;47.702;9.826;2023-06-01T00:06:24;3.90;;;3.60;;
20140;SDS011;10231;47.702;9.826;2023-06-01T00:08:53;4.90;;;3.90;;
20140;SDS011;10231;47.702;9.826;2023-06-01T00:11:20;5.23;;;3.83;;
20140;SDS011;10231;47.702;9.826;2023-06-01T00:13:46;4.07;;;3.77;;
20140;SDS011;10231;47.702;9.826;2023-06-01T00:16:13;4.93;;;4.03;;
20140;SDS011;10231;47.702;9.826;2023-06-01T00:18:39;7.83;;;4.50;;
20140;SDS011;10231;47.702;9.826;2023-06-01T00:21:04;6.83;;;4.67;;
20140;SDS011;10231;47.702;9.826;2023-06-01T00:23:30;5.97;;;4.63;;
20140;SDS011;10231;47.702;9.826;2023-06-01T00:25:56;5.13;;;4.33;;
20140;SDS011;10231;47.702;9.826;2023-06-01T00:28:22;5.73;;;4.20;;
20140;SDS011;10231;47.702;9.826;2023-06-01T00:30:48;9.30;;;4.27;;
20140;SDS011;10231;47.702;9.826;2023-06-01T00:33:14;7.70;;;4.93;;
20140;SDS011;10231;47.702;9.826;2023-06-01T00:35:41;5.10;;;4.60;;
20140;SDS011;10231;47.702;9.826;2023-06-01T00:38:06;6.17;;;4.43;;
20140;SDS011;10231;47.702;9.826;2023-06-01T00:40:32;5.73;;;4.87;;
20140;SDS011;10231;47.702;9.826;2023-06-01T00:42:58;5.43;;;4.90;;
20140;SDS011;10231;47.702;9.826;2023-06-01T00:45:24;5.27;;;4.77;;
20140;SDS011;10231;47.702;9.826;2023-06-01T00:47:50;8.60;;;4.90;;
20140;SDS011;10231;47.702;9.826;2023-06-01T00:50:15;5.23;;;4.70;;
20140;SDS011;10231;47.702;9.826;2023-06-01T00:52:41;8.87;;;5.00;;
20140;SDS011;10231;47.702;9.826;2023-06-01T00:55:07;4.73;;;3.97;;
20140;SDS011;10231;47.702;9.826;2023-06-01T00:57:34;6.70;;;5.00;;
20140;SDS011;10231;47.702;9.826;2023-06-01T01:00:04;5.17;;;4.53;;
20140;SDS011;10231;47.702;9.826;2023-06-01T01:02:35;7.80;;;4.83;;
20140;SDS011;10231;47.702;9.826;2023-06-01T01:05:03;4.97;;;4.53;;
20140;SDS011;10231;47.702;9.826;2023-06-01T01:15:53;5.87;;;5.27;;
20140;SDS011;10231;47.702;9.826;2023-06-01T01:22:00;5.27;;;4.80;;
20140;SDS011;10231;47.702;9.826;2023-06-01T01:25:29;8.37;;;5.40;;
20140;SDS011;10231;47.702;9.826;2023-06-01T01:30:36;5.70;;;5.20;;
20140;SDS011;10231;47.702;9.826;2023-06-01T01:33:04;5.80;;;5.30;;
20140;SDS011;10231;47.702;9.826;2023-06-01T01:35:32;5.50;;;5.00;;
20140;SDS011;10231;47.702;9.826;2023-06-01T01:37:58;6.97;;;5.20;;
20140;SDS011;10231;47.702;9.826;2023-06-01T01:40:24;5.27;;;4.57;;
20140;SDS011;10231;47.702;9.826;2023-06-01T01:42:50;6.83;;;5.30;;
20140;SDS011;10231;47.702;9.826;2023-06-01T01:45:17;6.37;;;4.77;;
20140;SDS011;10231;47.702;9.826;2023-06-01T01:47:45;5.37;;;4.53;;
20140;SDS011;10231;47.702;9.826;2023-06-01T01:50:16;5.50;;;4.53;;
20140;SDS011;10231;47.702;9.826;2023-06-01T01:52:44;7.17;;;5.17;;
20140;SDS011;10231;47.702;9.826;2023-06-01T01:55:11;7.53;;;4.97;;
20140;SDS011;10231;47.702;9.826;2023-06-01T01:57:40;5.50;;;4.90;;
20140;SDS011;10231;47.702;9.826;2023-06-01T02:00:06;5.57;;;5.07;;
20140;SDS011;10231;47.702;9.826;2023-06-01T02:02:33;5.97;;;5.43;;
20140;SDS011;10231;47.702;9.826;2023-06-01T02:04:58;6.13;;;5.50;;
20140;SDS011;10231;47.702;9.826;2023-06-01T02:07:24;9.13;;;5.60;;
20140;SDS011;10231;47.702;9.826;2023-06-01T02:09:50;6.83;;;4.90;;
20140;SDS011;10231;47.702;9.826;2023-06-01T02:12:15;6.07;;;5.47;;
20140;SDS011;10231;47.702;9.826;2023-06-01T02:14:41;8.60;;;5.03;;
20140;SDS011;10231;47.702;9.826;2023-06-01T02:17:07;6.30;;;5.40;;
20140;SDS011;10231;47.702;9.826;2023-06-01T02:19:32;5.93;;;5.43;;
20140;SDS011;10231;47.702;9.826;2023-06-01T02:21:58;6.93;;;5.20;;
20140;SDS011;10231;47.702;9.826;2023-06-01T02:24:24;6.67;;;5.20;;
20140;SDS011;10231;47.702;9.826;2023-06-01T02:26:50;6.23;;;5.23;;
20140;SDS011;10231;47.702;9.826;2023-06-01T02:29:19;6.50;;;5.20;;
20140;SDS011;10231;47.702;9.826;2023-06-01T02:31:49;8.77;;;5.80;;
20140;SDS011;10231;47.702;9.826;2023-06-01T02:34:16;5.73;;;5.23;;
20140;SDS011;10231;47.702;9.826;2023-06-01T02:36:42;6.53;;;5.17;;
20140;SDS011;10231;47.702;9.826;2023-06-01T02:39:07;5.93;;;5.23;;
20140;SDS011;10231;47.702;9.826;2023-06-01T02:41:33;5.50;;;5.00;;
20140;SDS011;10231;47.702;9.826;2023-06-01T02:43:59;7.33;;;5.57;;
20140;SDS011;10231;47.702;9.826;2023-06-01T02:46:24;8.40;;;5.83;;
20140;SDS011;10231;47.702;9.826;2023-06-01T02:48:50;6.90;;;5.90;;
20140;SDS011;10231;47.702;9.826;2023-06-01T02:51:17;6.20;;;5.60;;
20140;SDS011;10231;47.702;9.826;2023-06-01T02:53:43;6.60;;;5.50;;
20140;SDS011;10231;47.702;9.826;2023-06-01T02:56:09;7.97;;;6.10;;
20140;SDS011;10231;47.702;9.826;2023-06-01T02:58:35;9.03;;;6.63;;
20140;SDS011;10231;47.702;9.826;2023-06-01T03:01:01;7.20;;;6.03;;
20140;SDS011;10231;47.702;9.826;2023-06-01T03:03:26;7.23;;;6.20;;
20140;SDS011;10231;47.702;9.826;2023-06-01T03:05:52;9.80;;;6.60;;
20140;SDS011;10231;47.702;9.826;2023-06-01T03:08:19;8.87;;;6.40;;
20140;SDS011;10231;47.702;9.826;2023-06-01T03:10:44;6.30;;;5.70;;
20140;SDS011;10231;47.702;9.826;2023-06-01T03:13:10;6.83;;;6.13;;
20140;SDS011;10231;47.702;9.826;2023-06-01T03:15:36;7.23;;;6.47;;
20140;SDS011;10231;47.702;9.826;2023-06-01T03:18:02;9.00;;;6.47;;
20140;SDS011;10231;47.702;9.826;2023-06-01T03:20:31;8.10;;;6.20;;
20140;SDS011;10231;47.702;9.826;2023-06-01T03:22:57;7.10;;;6.40;;
20140;SDS011;10231;47.702;9.826;2023-06-01T03:25:22;9.97;;;5.97;;
20140;SDS011;10231;47.702;9.826;2023-06-01T03:27:49;7.23;;;5.97;;
20140;SDS011;10231;47.702;9.826;2023-06-01T03:30:15;7.17;;;6.03;;
20140;SDS011;10231;47.702;9.826;2023-06-01T03:32:41;7.27;;;6.17;;
20140;SDS011;10231;47.702;9.826;2023-06-01T03:35:08;6.90;;;6.30;;
20140;SDS011;10231;47.702;9.826;2023-06-01T03:37:34;9.30;;;6.23;;
20140;SDS011;10231;47.702;9.826;2023-06-01T03:40:01;8.30;;;5.97;;
20140;SDS011;10231;47.702;9.826;2023-06-01T03:42:35;7.47;;;5.60;;
20140;SDS011;10231;47.702;9.826;2023-06-01T03:45:04;6.70;;;6.10;;
20140;SDS011;10231;47.702;9.826;2023-06-01T03:47:30;7.57;;;6.70;;
20140;SDS011;10231;47.702;9.826;2023-06-01T03:49:57;10.43;;;6.43;;
20140;SDS011;10231;47.702;9.826;2023-06-01T03:52:24;8.40;;;7.27;;
20140;SDS011;10231;47.702;9.826;2023-06-01T03:54:50;7.10;;;6.40;;
20140;SDS011;10231;47.702;9.826;2023-06-01T03:57:16;6.60;;;5.90;;
20140;SDS011;10231;47.702;9.826;2023-06-01T03:59:42;7.67;;;6.97;;
20140;SDS011;10231;47.702;9.826;2023-06-01T04:02:07;7.90;;;7.10;;
20140;SDS011;10231;47.702;9.826;2023-06-01T04:04:36;8.37;;;6.63;;
20140;SDS011;10231;47.702;9.826;2023-06-01T04:07:02;8.40;;;7.07;;
20140;SDS011;10231;47.702;9.826;2023-06-01T04:09:31;8.10;;;6.33;;
20140;SDS011;10231;47.702;9.826;2023-06-01T04:11:57;8.07;;;7.00;;
20140;SDS011;10231;47.702;9.826;2023-06-01T04:14:23;8.57;;;7.27;;
20140;SDS011;10231;47.702;9.826;2023-06-01T04:16:48;9.20;;;6.93;;
20140;SDS011;10231;47.702;9.826;2023-06-01T04:19:14;9.20;;;7.03;;
20140;SDS011;10231;47.702;9.826;2023-06-01T04:21:40;9.27;;;6.33;;
20140;SDS011;10231;47.702;9.826;2023-06-01T04:24:06;8.20;;;6.63;;
20140;SDS011;10231;47.702;9.826;2023-06-01T04:26:31;7.60;;;6.37;;
20140;SDS011;10231;47.702;9.826;2023-06-01T04:28:57;8.30;;;5.83;;
20140;SDS011;10231;47.702;9.826;2023-06-01T04:31:23;7.40;;;6.70;;
20140;SDS011;10231;47.702;9.826;2023-06-01T04:33:49;9.27;;;6.73;;
20140;SDS011;10231;47.702;9.826;2023-06-01T04:36:22;7.63;;;6.73;;
20140;SDS011;10231;47.702;9.826;2023-06-01T04:38:48;6.80;;;5.93;;
20140;SDS011;10231;47.702;9.826;2023-06-01T04:41:18;7.93;;;7.17;;
20140;SDS011;10231;47.702;9.826;2023-06-01T04:43:45;7.70;;;6.47;;
20140;SDS011;10231;47.702;9.826;2023-06-01T04:46:16;7.20;;;6.47;;
20140;SDS011;10231;47.702;9.826;2023-06-01T04:48:43;7.60;;;6.90;;
20140;SDS011;10231;47.702;9.826;2023-06-01T04:51:09;7.57;;;5.90;;
20140;SDS011;10231;47.702;9.826;2023-06-01T04:53:35;7.47;;;6.70;;
20140;SDS011;10231;47.702;9.826;2023-06-01T04:56:01;9.70;;;6.77;;
20140;SDS011;10231;47.702;9.826;2023-06-01T04:58:26;7.93;;;7.13;;
20140;SDS011;10231;47.702;9.826;2023-06-01T05:00:52;7.17;;;6.47;;
20140;SDS011;10231;47.702;9.826;2023-06-01T05:03:19;7.80;;;6.77;;
20140;SDS011;10231;47.702;9.826;2023-06-01T05:05:45;7.53;;;6.73;;
20140;SDS011;10231;47.702;9.826;2023-06-01T05:08:11;8.53;;;7.60;;
20140;SDS011;10231;47.702;9.826;2023-06-01T05:10:37;9.83;;;7.17;;
20140;SDS011;10231;47.702;9.826;2023-06-01T05:13:03;8.80;;;7.70;;
20140;SDS011;10231;47.702;9.826;2023-06-01T05:15:28;9.30;;;8.07;;
20140;SDS011;10231;47.702;9.826;2023-06-01T05:17:55;9.53;;;8.63;;
20140;SDS011;10231;47.702;9.826;2023-06-01T05:20:21;12.03;;;7.73;;
20140;SDS011;10231;47.702;9.826;2023-06-01T05:22:47;8.57;;;7.77;;
20140;SDS011;10231;47.702;9.826;2023-06-01T05:25:12;8.93;;;8.03;;
20140;SDS011;10231;47.702;9.826;2023-06-01T05:27:38;8.67;;;7.77;;
20140;SDS011;10231;47.702;9.826;2023-06-01T05:30:03;8.73;;;7.83;;
20140;SDS011;10231;47.702;9.826;2023-06-01T05:32:30;9.80;;;7.83;;
20140;SDS011;10231;47.702;9.826;2023-06-01T05:34:56;8.00;;;7.17;;
20140;SDS011;10231;47.702;9.826;2023-06-01T05:37:21;10.03;;;7.57;;
20140;SDS011;10231;47.702;9.826;2023-06-01T05:39:47;9.20;;;7.83;;
20140;SDS011;10231;47.702;9.826;2023-06-01T05:42:12;10.97;;;7.60;;
20140;SDS011;10231;47.702;9.826;2023-06-01T05:44:38;8.33;;;7.50;;
20140;SDS011;10231;47.702;9.826;2023-06-01T05:47:03;10.93;;;8.00;;
20140;SDS011;10231;47.702;9.826;2023-06-01T05:49:29;10.20;;;8.93;;
20140;SDS011;10231;47.702;9.826;2023-06-01T05:51:56;10.50;;;7.00;;
20140;SDS011;10231;47.702;9.826;2023-06-01T05:54:23;9.70;;;7.30;;
20140;SDS011;10231;47.702;9.826;2023-06-01T05:56:48;10.87;;;8.00;;
20140;SDS011;10231;47.702;9.826;2023-06-01T05:59:14;10.73;;;7.23;;
20140;SDS011;10231;47.702;9.826;2023-06-01T06:01:40;8.90;;;7.97;;
20140;SDS011;10231;47.702;9.826;2023-06-01T06:04:06;12.40;;;7.87;;
20140;SDS011;10231;47.702;9.826;2023-06-01T06:06:31;8.70;;;7.80;;
20140;SDS011;10231;47.702;9.826;2023-06-01T06:08:57;10.13;;;7.53;;
20140;SDS011;10231;47.702;9.826;2023-06-01T06:11:22;9.53;;;8.10;;
20140;SDS011;10231;47.702;9.826;2023-06-01T06:13:48;10.30;;;8.53;;
20140;SDS011;10231;47.702;9.826;2023-06-01T06:16:17;9.67;;;7.83;;
20140;SDS011;10231;47.702;9.826;2023-06-01T06:18:42;12.50;;;7.83;;
20140;SDS011;10231;47.702;9.826;2023-06-01T06:21:08;8.83;;;7.33;;
20140;SDS011;10231;47.702;9.826;2023-06-01T06:23:33;10.07;;;7.37;;
20140;SDS011;10231;47.702;9.826;2023-06-01T06:25:59;9.93;;;7.87;;
20140;SDS011;10231;47.702;9.826;2023-06-01T06:28:24;9.77;;;7.80;;
20140;SDS011;10231;47.702;9.826;2023-06-01T06:30:51;8.37;;;7.00;;
20140;SDS011;10231;47.702;9.826;2023-06-01T06:33:17;10.67;;;6.97;;
20140;SDS011;10231;47.702;9.826;2023-06-01T06:35:42;11.27;;;8.13;;
20140;SDS011;10231;47.702;9.826;2023-06-01T06:38:10;10.97;;;6.63;;
20140;SDS011;10231;47.702;9.826;2023-06-01T06:40:36;9.10;;;7.80;;
20140;SDS011;10231;47.702;9.826;2023-06-01T06:43:02;8.73;;;7.03;;
20140;SDS011;10231;47.702;9.826;2023-06-01T06:45:27;8.53;;;7.60;;
20140;SDS011;10231;47.702;9.826;2023-06-01T06:47:53;8.67;;;7.80;;
20140;SDS011;10231;47.702;9.826;2023-06-01T06:50:18;8.47;;;7.27;;
20140;SDS011;10231;47.702;9.826;2023-06-01T06:52:44;9.90;;;8.10;;
20140;SDS011;10231;47.702;9.826;2023-06-01T06:55:10;10.03;;;8.10;;
20140;SDS011;10231;47.702;9.826;2023-06-01T06:57:35;10.07;;;7.90;;
20140;SDS011;10231;47.702;9.826;2023-06-01T07:00:01;7.67;;;6.97;;
20140;SDS011;10231;47.702;9.826;2023-06-01T07:02:28;9.27;;;7.17;;
20140;SDS011;10231;47.702;9.826;2023-06-01T07:04:55;10.47;;;8.17;;
20140;SDS011;10231;47.702;9.826;2023-06-01T07:07:20;7.43;;;6.67;;
20140;SDS011;10231;47.702;9.826;2023-06-01T07:09:46;7.97;;;7.17;;
20140;SDS011;10231;47.702;9.826;2023-06-01T07:12:11;9.50;;;8.47;;
20140;SDS011;10231;47.702;9.826;2023-06-01T07:14:37;11.30;;;8.13;;
20140;SDS011;10231;47.702;9.826;2023-06-01T07:17:02;9.63;;;7.80;;
20140;SDS011;10231;47.702;9.826;2023-06-01T07:19:28;8.77;;;7.27;;
20140;SDS011;10231;47.702;9.826;2023-06-01T07:21:58;8.37;;;7.27;;
20140;SDS011;10231;47.702;9.826;2023-06-01T07:24:24;9.17;;;7.23;;
20140;SDS011;10231;47.702;9.826;2023-06-01T07:26:51;10.10;;;7.30;;
20140;SDS011;10231;47.702;9.826;2023-06-01T07:29:16;7.77;;;6.97;;
20140;SDS011;10231;47.702;9.826;2023-06-01T07:31:42;7.77;;;5.83;;
20140;SDS011;10231;47.702;9.826;2023-06-01T07:34:08;6.53;;;4.97;;
20140;SDS011;10231;47.702;9.826;2023-06-01T07:36:34;6.77;;;5.53;;
20140;SDS011;10231;47.702;9.826;2023-06-01T07:39:02;8.60;;;5.93;;
20140;SDS011;10231;47.702;9.826;2023-06-01T07:41:32;9.20;;;5.63;;
20140;SDS011;10231;47.702;9.826;2023-06-01T07:43:58;8.43;;;4.97;;
20140;SDS011;10231;47.702;9.826;2023-06-01T07:46:24;9.50;;;5.73;;
20140;SDS011;10231;47.702;9.826;2023-06-01T07:48:49;8.07;;;5.83;;
20140;SDS011;10231;47.702;9.826;2023-06-01T07:51:15;6.63;;;5.50;;
20140;SDS011;10231;47.702;9.826;2023-06-01T07:53:41;6.53;;;5.73;;
20140;SDS011;10231;47.702;9.826;2023-06-01T07:56:07;6.90;;;5.30;;
20140;SDS011;10231;47.702;9.826;2023-06-01T07:58:32;9.23;;;5.30;;
20140;SDS011;10231;47.702;9.826;2023-06-01T08:00:58;6.67;;;5.97;;
20140;SDS011;10231;47.702;9.826;2023-06-01T08:03:23;6.93;;;5.60;;
20140;SDS011;10231;47.702;9.826;2023-06-01T08:05:50;7.10;;;5.47;;
20140;SDS011;10231;47.702;9.826;2023-06-01T08:08:19;7.33;;;6.03;;
20140;SDS011;10231;47.702;9.826;2023-06-01T08:10:46;6.53;;;5.93;;
20140;SDS011;10231;47.702;9.826;2023-06-01T08:13:12;10.53;;;6.87;;
20140;SDS011;10231;47.702;9.826;2023-06-01T08:15:38;6.33;;;5.70;;
20140;SDS011;10231;47.702;9.826;2023-06-01T08:18:04;8.60;;;6.83;;
20140;SDS011;10231;47.702;9.826;2023-06-01T08:20:31;6.63;;;6.00;;
20140;SDS011;10231;47.702;9.826;2023-06-01T08:22:56;6.80;;;6.10;;
20140;SDS011;10231;47.702;9.826;2023-06-01T08:25:22;13.00;;;6.67;;
20140;SDS011;10231;47.702;9.826;2023-06-01T08:27:48;6.37;;;5.67;;
20140;SDS011;10231;47.702;9.826;2023-06-01T08:30:14;6.40;;;5.77;;
20140;SDS011;10231;47.702;9.826;2023-06-01T08:32:40;6.57;;;5.30;;
20140;SDS011;10231;47.702;9.826;2023-06-01T08:35:06;9.13;;;5.80;;
20140;SDS011;10231;47.702;9.826;2023-06-01T08:37:32;7.17;;;5.57;;
20140;SDS011;10231;47.702;9.826;2023-06-01T08:39:59;6.57;;;5.37;;
20140;SDS011;10231;47.702;9.826;2023-06-01T08:44:59;6.47;;;5.13;;
20140;SDS011;10231;47.702;9.826;2023-06-01T08:47:30;5.80;;;5.30;;
20140;SDS011;10231;47.702;9.826;2023-06-01T08:50:00;5.43;;;4.80;;
20140;SDS011;10231;47.702;9.826;2023-06-01T08:52:26;9.37;;;5.50;;
20140;SDS011;10231;47.702;9.826;2023-06-01T08:54:57;5.97;;;5.33;;
20140;SDS011;10231;47.702;9.826;2023-06-01T08:57:23;5.60;;;5.00;;
20140;SDS011;10231;47.702;9.826;2023-06-01T08:59:49;7.17;;;4.97;;
20140;SDS011;10231;47.702;9.826;2023-06-01T09:02:15;5.70;;;5.00;;
20140;SDS011;10231;47.702;9.826;2023-06-01T09:04:41;6.87;;;5.07;;
20140;SDS011;10231;47.702;9.826;2023-06-01T09:07:09;5.47;;;4.87;;
20140;SDS011;10231;47.702;9.826;2023-06-01T09:09:36;6.13;;;5.13;;
20140;SDS011;10231;47.702;9.826;2023-06-01T09:17:32;6.23;;;5.00;;
20140;SDS011;10231;47.702;9.826;2023-06-01T09:19:58;5.20;;;4.70;;
20140;SDS011;10231;47.702;9.826;2023-06-01T09:22:23;6.30;;;4.90;;
20140;SDS011;10231;47.702;9.826;2023-06-01T09:24:56;6.10;;;5.30;;
20140;SDS011;10231;47.702;9.826;2023-06-01T09:27:23;6.03;;;4.83;;
20140;SDS011;10231;47.702;9.826;2023-06-01T09:29:58;7.07;;;6.23;;
20140;SDS011;10231;47.702;9.826;2023-06-01T09:32:26;5.77;;;4.87;;
20140;SDS011;10231;47.702;9.826;2023-06-01T09:34:52;6.53;;;4.90;;
20140;SDS011;10231;47.702;9.826;2023-06-01T09:37:20;5.70;;;5.20;;
20140;SDS011;10231;47.702;9.826;2023-06-01T09:39:45;5.20;;;4.70;;
20140;SDS011;10231;47.702;9.826;2023-06-01T09:42:11;4.90;;;4.47;;
20140;SDS011;10231;47.702;9.826;2023-06-01T09:44:38;5.27;;;4.77;;
20140;SDS011;10231;47.702;9.826;2023-06-01T09:47:05;6.03;;;4.53;;
20140;SDS011;10231;47.702;9.826;2023-06-01T09:49:38;5.87;;;5.37;;
20140;SDS011;10231;47.702;9.826;2023-06-01T09:54:36;6.00;;;4.10;;
20140;SDS011;10231;47.702;9.826;2023-06-01T09:57:06;5.30;;;4.80;;
20140;SDS011;10231;47.702;9.826;2023-06-01T09:59:37;5.77;;;4.67;;
20140;SDS011;10231;47.702;9.826;2023-06-01T10:02:03;5.30;;;4.80;;
20140;SDS011;10231;47.702;9.826;2023-06-01T10:04:30;5.30;;;4.80;;
20140;SDS011;10231;47.702;9.826;2023-06-01T10:06:56;5.97;;;4.47;;
20140;SDS011;10231;47.702;9.826;2023-06-01T10:09:23;5.37;;;4.80;;
20140;SDS011;10231;47.702;9.826;2023-06-01T10:11:54;5.73;;;4.23;;
20140;SDS011;10231;47.702;9.826;2023-06-01T10:14:21;4.90;;;4.50;;
20140;SDS011;10231;47.702;9.826;2023-06-01T10:16:48;7.17;;;4.80;;
20140;SDS011;10231;47.702;9.826;2023-06-01T10:19:15;4.53;;;4.13;;
20140;SDS011;10231;47.702;9.826;2023-06-01T10:21:42;4.90;;;3.90;;
20140;SDS011;10231;47.702;9.826;2023-06-01T10:24:10;6.40;;;4.73;;
20140;SDS011;10231;47.702;9.826;2023-06-01T10:26:39;5.17;;;4.67;;
20140;SDS011;10231;47.702;9.826;2023-06-01T10:29:28;5.93;;;5.30;;
20140;SDS011;10231;47.702;9.826;2023-06-01T10:31:55;6.17;;;4.17;;
20140;SDS011;10231;47.702;9.826;2023-06-01T10:34:44;6.90;;;5.23;;
20140;SDS011;10231;47.702;9.826;2023-06-01T10:37:10;7.00;;;4.27;;
20140;SDS011;10231;47.702;9.826;2023-06-01T10:39:36;6.80;;;4.60;;
20140;SDS011;10231;47.702;9.826;2023-06-01T10:52:28;5.07;;;4.43;;
20140;SDS011;10231;47.702;9.826;2023-06-01T10:57:45;5.30;;;4.80;;
20140;SDS011;10231;47.702;9.826;2023-06-01T11:02:50;5.23;;;4.73;;
20140;SDS011;10231;47.702;9.826;2023-06-01T11:05:37;5.80;;;4.70;;
20140;SDS011;10231;47.702;9.826;2023-06-01T11:13:18;6.67;;;4.37;;
20140;SDS011;10231;47.702;9.826;2023-06-01T11:16:30;7.37;;;4.57;;
20140;SDS011;10231;47.702;9.826;2023-06-01T11:21:20;5.87;;;5.37;;
20140;SDS011;10231;47.702;9.826;2023-06-01T11:23:47;6.00;;;4.53;;
20140;SDS011;10231;47.702;9.826;2023-06-01T11:26:14;5.93;;;5.40;;
20140;SDS011;10231;47.702;9.826;2023-06-01T11:28:43;9.03;;;6.37;;
20140;SDS011;10231;47.702;9.826;2023-06-01T11:31:13;7.97;;;5.73;;
20140;SDS011;10231;47.702;9.826;2023-06-01T11:33:52;8.87;;;6.57;;
20140;SDS011;10231;47.702;9.826;2023-06-01T11:36:21;5.63;;;5.13;;
20140;SDS011;10231;47.702;9.826;2023-06-01T11:38:50;9.13;;;6.53;;
20140;SDS011;10231;47.702;9.826;2023-06-01T11:41:18;7.00;;;5.80;;
20140;SDS011;10231;47.702;9.826;2023-06-01T11:43:45;5.97;;;5.33;;
20140;SDS011;10231;47.702;9.826;2023-06-01T11:46:20;6.47;;;5.77;;
20140;SDS011;10231;47.702;9.826;2023-06-01T11:48:57;6.23;;;5.63;;
20140;SDS011;10231;47.702;9.826;2023-06-01T11:51:30;8.90;;;5.93;;
20140;SDS011;10231;47.702;9.826;2023-06-01T11:54:00;7.93;;;5.80;;
20140;SDS011;10231;47.702;9.826;2023-06-01T11:56:33;5.83;;;5.33;;
20140;SDS011;10231;47.702;9.826;2023-06-01T11:59:01;5.83;;;5.23;;
20140;SDS011;10231;47.702;9.826;2023-06-01T12:01:33;6.73;;;5.63;;
20140;SDS011;10231;47.702;9.826;2023-06-01T12:06:39;7.10;;;6.40;;
20140;SDS011;10231;47.702;9.826;2023-06-01T12:09:04;6.10;;;5.50;;
20140;SDS011;10231;47.702;9.826;2023-06-01T12:11:31;6.03;;;5.47;;
20140;SDS011;10231;47.702;9.826;2023-06-01T12:13:57;7.03;;;6.20;;
20140;SDS011;10231;47.702;9.826;2023-06-01T12:16:24;8.47;;;6.03;;
20140;SDS011;10231;47.702;9.826;2023-06-01T12:18:52;7.33;;;5.90;;
20140;SDS011;10231;47.702;9.826;2023-06-01T12:21:19;8.67;;;5.63;;
20140;SDS011;10231;47.702;9.826;2023-06-01T12:23:53;7.00;;;6.23;;
20140;SDS011;10231;47.702;9.826;2023-06-01T12:26:19;7.07;;;5.50;;
20140;SDS011;10231;47.702;9.826;2023-06-01T12:28:48;9.07;;;6.23;;
20140;SDS011;10231;47.702;9.826;2023-06-01T12:31:16;8.43;;;6.57;;
20140;SDS011;10231;47.702;9.826;2023-06-01T12:33:43;6.73;;;6.07;;
20140;SDS011;10231;47.702;9.826;2023-06-01T12:36:10;6.63;;;6.03;;
20140;SDS011;10231;47.702;9.826;2023-06-01T12:38:52;6.90;;;6.20;;
20140;SDS011;10231;47.702;9.826;2023-06-01T12:41:18;7.07;;;6.43;;
20140;SDS011;10231;47.702;9.826;2023-06-01T12:43:44;7.83;;;6.07;;
20140;SDS011;10231;47.702;9.826;2023-06-01T12:46:17;5.87;;;5.23;;
20140;SDS011;10231;47.702;9.826;2023-06-01T12:48:50;7.80;;;6.37;;
20140;SDS011;10231;47.702;9.826;2023-06-01T12:51:18;6.07;;;5.50;;
20140;SDS011;10231;47.702;9.826;2023-06-01T12:53:44;8.40;;;6.43;;
20140;SDS011;10231;47.702;9.826;2023-06-01T12:56:10;7.17;;;6.47;;
20140;SDS011;10231;47.702;9.826;2023-06-01T12:58:36;7.53;;;5.60;;
20140;SDS011;10231;47.702;9.826;2023-06-01T13:01:02;5.47;;;5.07;;
20140;SDS011;10231;47.702;9.826;2023-06-01T13:03:28;6.47;;;5.67;;
20140;SDS011;10231;47.702;9.826;2023-06-01T13:05:54;7.00;;;5.50;;
20140;SDS011;10231;47.702;9.826;2023-06-01T13:08:20;5.53;;;4.93;;
20140;SDS011;10231;47.702;9.826;2023-06-01T13:10:47;5.67;;;5.17;;
20140;SDS011;10231;47.702;9.826;2023-06-01T13:13:13;5.57;;;5.07;;
20140;SDS011;10231;47.702;9.826;2023-06-01T13:15:39;5.50;;;5.00;;
20140;SDS011;10231;47.702;9.826;2023-06-01T13:18:05;5.90;;;5.40;;
20140;SDS011;10231;47.702;9.826;2023-06-01T13:20:31;4.97;;;4.37;;
20140;SDS011;10231;47.702;9.826;2023-06-01T13:22:57;5.63;;;5.13;;
20140;SDS011;10231;47.702;9.826;2023-06-01T13:25:22;5.30;;;4.80;;
20140;SDS011;10231;47.702;9.826;2023-06-01T13:27:48;6.30;;;5.70;;
20140;SDS011;10231;47.702;9.826;2023-06-01T13:30:14;7.17;;;5.20;;
20140;SDS011;10231;47.702;9.826;2023-06-01T13:32:39;5.87;;;5.00;;
20140;SDS011;10231;47.702;9.826;2023-06-01T13:35:05;5.53;;;5.07;;
20140;SDS011;10231;47.702;9.826;2023-06-01T13:37:33;5.23;;;4.83;;
20140;SDS011;10231;47.702;9.826;2023-06-01T13:40:01;5.47;;;4.97;;
20140;SDS011;10231;47.702;9.826;2023-06-01T13:42:27;5.43;;;4.93;;
20140;SDS011;10231;47.702;9.826;2023-06-01T13:44:53;6.90;;;4.97;;
20140;SDS011;10231;47.702;9.826;2023-06-01T13:47:19;6.33;;;5.17;;
20140;SDS011;10231;47.702;9.826;2023-06-01T13:49:45;5.93;;;5.37;;
20140;SDS011;10231;47.702;9.826;2023-06-01T13:52:11;6.60;;;5.03;;
20140;SDS011;10231;47.702;9.826;2023-06-01T13:54:37;5.93;;;5.07;;
20140;SDS011;10231;47.702;9.826;2023-06-01T13:57:02;5.70;;;5.03;;
20140;SDS011;10231;47.702;9.826;2023-06-01T13:59:28;6.50;;;5.10;;
20140;SDS011;10231;47.702;9.826;2023-06-01T14:01:56;5.67;;;5.10;;
20140;SDS011;10231;47.702;9.826;2023-06-01T14:04:22;7.73;;;5.07;;
20140;SDS011;10231;47.702;9.826;2023-06-01T14:06:47;6.07;;;4.97;;
20140;SDS011;10231;47.702;9.826;2023-06-01T14:09:15;5.60;;;5.10;;
20140;SDS011;10231;47.702;9.826;2023-06-01T14:11:41;5.47;;;4.97;;
20140;SDS011;10231;47.702;9.826;2023-06-01T14:14:06;5.57;;;5.00;;
20140;SDS011;10231;47.702;9.826;2023-06-01T14:16:32;5.23;;;4.73;;
20140;SDS011;10231;47.702;9.826;2023-06-01T14:18:57;6.33;;;4.70;;
20140;SDS011;10231;47.702;9.826;2023-06-01T14:21:23;9.67;;;5.10;;
20140;SDS011;10231;47.702;9.826;2023-06-01T14:23:49;5.97;;;5.43;;
20140;SDS011;10231;47.702;9.826;2023-06-01T14:26:14;6.10;;;4.93;;
20140;SDS011;10231;47.702;9.826;2023-06-01T14:28:40;6.33;;;4.83;;
20140;SDS011;10231;47.702;9.826;2023-06-01T14:31:05;7.00;;;4.83;;
20140;SDS011;10231;47.702;9.826;2023-06-01T14:33:31;6.73;;;5.20;;
20140;SDS011;10231;47.702;9.826;2023-06-01T14:35:56;7.27;;;5.13;;
20140;SDS011;10231;47.702;9.826;2023-06-01T14:38:22;8.80;;;5.27;;
20140;SDS011;10231;47.702;9.826;2023-06-01T14:40:47;5.03;;;4.63;;
20140;SDS011;10231;47.702;9.826;2023-06-01T14:43:13;5.43;;;4.83;;
20140;SDS011;10231;47.702;9.826;2023-06-01T14:45:39;5.60;;;5.07;;
20140;SDS011;10231;47.702;9.826;2023-06-01T14:48:04;7.00;;;5.00;;
20140;SDS011;10231;47.702;9.826;2023-06-01T14:50:30;5.33;;;4.40;;
20140;SDS011;10231;47.702;9.826;2023-06-01T14:52:55;7.20;;;4.80;;
20140;SDS011;10231;47.702;9.826;2023-06-01T14:55:24;5.90;;;4.50;;
20140;SDS011;10231;47.702;9.826;2023-06-01T14:57:50;6.20;;;4.73;;
20140;SDS011;10231;47.702;9.826;2023-06-01T15:00:16;4.60;;;4.20;;
20140;SDS011;10231;47.702;9.826;2023-06-01T15:02:43;5.33;;;4.83;;
20140;SDS011;10231;47.702;9.826;2023-06-01T15:05:10;6.10;;;4.80;;
20140;SDS011;10231;47.702;9.826;2023-06-01T15:07:36;5.63;;;4.93;;
20140;SDS011;10231;47.702;9.826;2023-06-01T15:10:02;5.80;;;4.43;;
20140;SDS011;10231;47.702;9.826;2023-06-01T15:12:28;5.43;;;4.70;;
20140;SDS011;10231;47.702;9.826;2023-06-01T15:14:53;15.87;;;5.00;;
20140;SDS011;10231;47.702;9.826;2023-06-01T15:17:19;6.80;;;4.50;;
20140;SDS011;10231;47.702;9.826;2023-06-01T15:19:45;4.70;;;4.13;;
20140;SDS011;10231;47.702;9.826;2023-06-01T15:22:11;5.37;;;4.40;;
20140;SDS011;10231;47.702;9.826;2023-06-01T15:24:36;5.33;;;4.87;;
20140;SDS011;10231;47.702;9.826;2023-06-01T15:27:02;8.13;;;4.90;;
20140;SDS011;10231;47.702;9.826;2023-06-01T15:29:28;5.50;;;4.43;;
20140;SDS011;10231;47.702;9.826;2023-06-01T15:31:54;5.40;;;4.40;;
20140;SDS011;10231;47.702;9.826;2023-06-01T15:34:19;7.90;;;4.10;;
20140;SDS011;10231;47.702;9.826;2023-06-01T15:36:45;4.40;;;4.00;;
20140;SDS011;10231;47.702;9.826;2023-06-01T15:39:10;6.80;;;5.03;;